createdAt,value
2022-11-08T00:00:09.387Z,82.45
2022-11-08T00:05:54.131Z,82.50
2022-11-08T00:11:23.838Z,82.54
2022-11-08T00:16:31.449Z,82.73
2022-11-08T00:21:38.473Z,82.98
2022-11-08T00:26:45.390Z,82.88
2022-11-08T00:31:52.312Z,83.00
2022-11-08T00:36:59.645Z,82.91
2022-11-08T00:42:07.130Z,83.00
2022-11-08T00:47:14.159Z,83.03
2022-11-08T00:52:23.678Z,83.12
2022-11-08T00:57:47.180Z,83.14
2022-11-08T01:03:11.966Z,83.18
2022-11-08T01:08:20.042Z,83.27
2022-11-08T01:13:27.783Z,83.21
2022-11-08T01:18:34.836Z,83.38
2022-11-08T01:23:43.934Z,83.42
2022-11-08T01:28:51.216Z,83.55
2022-11-08T01:33:58.629Z,83.69
2022-11-08T01:39:05.548Z,83.80
2022-11-08T01:44:18.347Z,83.76
2022-11-08T01:49:33.935Z,83.77
2022-11-08T01:54:46.970Z,83.78
2022-11-08T01:59:58.355Z,83.71
2022-11-08T02:05:08.120Z,83.64
2022-11-08T02:10:15.320Z,83.72
2022-11-08T02:15:24.117Z,83.89
2022-11-08T02:20:31.581Z,83.83
2022-11-08T02:25:39.076Z,84.03
2022-11-08T02:30:46.478Z,84.01
2022-11-08T02:35:56.080Z,83.98
2022-11-08T02:41:03.084Z,84.09
2022-11-08T02:46:10.143Z,84.32
2022-11-08T02:51:17.424Z,84.27
2022-11-08T02:56:24.591Z,84.40
2022-11-08T03:01:31.723Z,84.37
2022-11-08T03:06:38.843Z,84.49
2022-11-08T03:11:45.796Z,84.43
2022-11-08T03:16:52.889Z,84.44
2022-11-08T03:21:59.656Z,84.38
2022-11-08T03:27:06.507Z,84.46
2022-11-08T03:32:13.867Z,84.48
2022-11-08T03:37:23.264Z,84.48
2022-11-08T03:42:30.282Z,84.45
2022-11-08T03:47:41.696Z,84.55
2022-11-08T03:52:49.823Z,84.60
2022-11-08T03:57:57.213Z,84.65
2022-11-08T04:03:05.125Z,84.77
2022-11-08T04:08:12.084Z,84.86
2022-11-08T04:13:48.254Z,84.90
2022-11-08T04:19:13.732Z,84.98
2022-11-08T04:24:20.969Z,85.01
2022-11-08T04:29:28.435Z,84.92
2022-11-08T04:34:35.537Z,85.00
2022-11-08T04:39:42.346Z,85.04
2022-11-08T04:44:49.559Z,85.30
2022-11-08T04:49:56.353Z,85.48
2022-11-08T04:55:03.174Z,85.37
2022-11-08T05:00:12.470Z,85.26
2022-11-08T05:05:19.749Z,85.46
2022-11-08T05:10:26.640Z,85.40
2022-11-08T05:15:34.095Z,85.33
2022-11-08T05:20:58.958Z,85.32
2022-11-08T05:26:06.131Z,85.30
2022-11-08T05:31:13.351Z,85.42
2022-11-08T05:36:20.424Z,85.37
2022-11-08T05:41:28.080Z,85.32
2022-11-08T05:46:35.387Z,85.50
2022-11-08T05:51:42.282Z,85.54
2022-11-08T05:56:49.321Z,85.64
2022-11-08T06:01:56.174Z,85.74
2022-11-08T06:07:03.192Z,85.70
2022-11-08T06:12:10.755Z,85.67
2022-11-08T06:17:17.514Z,85.70
2022-11-08T06:22:24.767Z,85.85
2022-11-08T06:27:32.024Z,85.91
2022-11-08T06:32:38.792Z,86.13
2022-11-08T06:37:48.341Z,85.98
2022-11-08T06:42:55.336Z,86.07
2022-11-08T06:48:04.008Z,86.22
2022-11-08T06:53:12.859Z,86.34
2022-11-08T06:58:19.714Z,86.56
2022-11-08T07:03:26.720Z,86.80
2022-11-08T07:08:34.426Z,86.74
2022-11-08T07:13:41.402Z,86.76
2022-11-08T07:18:50.764Z,86.87
2022-11-08T07:23:57.728Z,86.84
2022-11-08T07:29:04.815Z,86.88
2022-11-08T07:34:11.662Z,87.06
2022-11-08T07:39:19.440Z,87.06
2022-11-08T07:44:26.679Z,87.10
2022-11-08T07:49:33.564Z,87.07
2022-11-08T07:54:40.435Z,87.11
2022-11-08T07:59:47.353Z,87.25
2022-11-08T08:04:54.994Z,87.23
2022-11-08T08:10:04.217Z,87.38
2022-11-08T08:15:12.536Z,87.45
2022-11-08T08:20:20.277Z,87.48
2022-11-08T08:25:27.372Z,87.52
2022-11-08T08:30:34.995Z,87.55
2022-11-08T08:35:43.987Z,87.67
2022-11-08T08:40:51.228Z,87.65
2022-11-08T08:46:01.228Z,87.26
2022-11-08T08:51:08.287Z,87.10
2022-11-08T08:56:15.357Z,86.62
2022-11-08T09:01:37.991Z,86.44
2022-11-08T09:06:45.567Z,86.32
2022-11-08T09:11:52.907Z,86.07
2022-11-08T09:17:00.364Z,85.92
2022-11-08T09:22:07.457Z,85.75
2022-11-08T09:27:14.412Z,85.41
2022-11-08T09:32:39.298Z,85.25
2022-11-08T09:37:49.839Z,84.79
2022-11-08T09:43:11.201Z,84.43
2022-11-08T09:48:25.905Z,83.99
2022-11-08T09:53:39.889Z,83.68
2022-11-08T09:58:51.889Z,83.36
2022-11-08T10:04:03.413Z,83.20
2022-11-08T10:09:25.280Z,82.92
2022-11-08T10:14:53.571Z,82.33
2022-11-08T10:20:11.245Z,81.71
2022-11-08T10:25:24.972Z,81.42
2022-11-08T10:30:37.852Z,81.11
2022-11-08T10:35:47.958Z,80.80
2022-11-08T10:41:07.526Z,80.72
2022-11-08T10:46:37.345Z,80.65
2022-11-08T10:51:46.352Z,80.33
2022-11-08T10:56:57.900Z,80.13
2022-11-08T11:02:10.166Z,79.71
2022-11-08T11:07:32.700Z,78.60
2022-11-08T11:12:39.504Z,78.72
2022-11-08T11:17:47.711Z,78.04
2022-11-08T11:22:55.479Z,78.04
2022-11-08T11:28:03.398Z,77.20
2022-11-08T11:33:26.089Z,77.09
2022-11-08T11:38:40.207Z,76.89
2022-11-08T11:43:59.237Z,76.78
2022-11-08T11:49:15.126Z,76.00
2022-11-08T11:54:23.995Z,75.38
2022-11-08T11:59:56.753Z,71.71
2022-11-08T12:05:22.304Z,68.19
2022-11-08T12:10:36.751Z,68.13
2022-11-08T12:15:51.031Z,66.32
2022-11-08T12:21:07.842Z,64.00
2022-11-08T12:26:22.805Z,64.78
2022-11-08T12:31:34.898Z,63.95
2022-11-08T12:36:52.722Z,63.48
2022-11-08T12:42:15.695Z,61.68
2022-11-08T12:47:35.551Z,60.49
2022-11-08T12:52:57.820Z,60.35
2022-11-08T12:58:10.249Z,59.85
2022-11-08T13:03:36.623Z,58.11
2022-11-08T13:08:56.757Z,57.46
2022-11-08T13:14:06.390Z,57.44
2022-11-08T13:19:29.718Z,58.95
2022-11-08T13:24:45.393Z,58.38
2022-11-08T13:29:53.540Z,59.84
2022-11-08T13:35:07.624Z,59.60
2022-11-08T13:40:29.234Z,59.83
2022-11-08T13:45:37.365Z,59.05
2022-11-08T13:50:53.094Z,60.56
2022-11-08T13:56:18.910Z,59.14
2022-11-08T14:01:59.902Z,59.69
2022-11-08T14:07:12.633Z,59.49
2022-11-08T14:12:27.592Z,57.64
2022-11-08T14:17:44.788Z,59.28
2022-11-08T14:22:52.228Z,59.99
2022-11-08T14:27:59.706Z,60.28
2022-11-08T14:33:19.701Z,60.63
2022-11-08T14:38:27.472Z,60.79
2022-11-08T14:43:46.331Z,60.92
2022-11-08T14:48:55.222Z,61.17
2022-11-08T14:54:02.072Z,61.34
2022-11-08T14:59:11.858Z,61.41
2022-11-08T15:04:21.570Z,61.52
2022-11-08T15:09:31.953Z,62.22
2022-11-08T15:14:46.862Z,62.86
2022-11-08T15:20:03.794Z,63.46
2022-11-08T15:25:25.155Z,63.95
2022-11-08T15:30:42.563Z,64.40
2022-11-08T15:35:50.761Z,64.65
2022-11-08T15:40:59.973Z,65.24
2022-11-08T15:46:08.473Z,65.47
2022-11-08T15:51:16.069Z,66.02
2022-11-08T15:56:23.757Z,66.24
2022-11-08T16:01:30.923Z,66.85
2022-11-08T16:06:38.414Z,67.20
2022-11-08T16:11:46.365Z,67.66
2022-11-08T16:16:53.596Z,68.08
2022-11-08T16:22:07.381Z,68.41
2022-11-08T16:27:14.531Z,68.98
2022-11-08T16:32:21.380Z,69.54
2022-11-08T16:37:28.464Z,69.70
2022-11-08T16:42:35.514Z,70.30
2022-11-08T16:47:44.838Z,70.48
2022-11-08T16:52:52.107Z,70.72
2022-11-08T16:57:59.239Z,71.08
2022-11-08T17:03:06.526Z,71.11
2022-11-08T17:08:13.600Z,71.17
2022-11-08T17:13:22.166Z,71.09
2022-11-08T17:18:29.422Z,71.39
2022-11-08T17:23:36.420Z,71.44
2022-11-08T17:28:43.487Z,71.52
2022-11-08T17:33:52.257Z,71.89
2022-11-08T17:38:59.605Z,71.68
2022-11-08T17:44:06.716Z,71.92
2022-11-08T17:49:13.873Z,72.25
2022-11-08T17:54:21.249Z,72.72
2022-11-08T17:59:29.622Z,73.03
2022-11-08T18:04:36.746Z,73.00
2022-11-08T18:09:43.767Z,73.16
2022-11-08T18:14:50.628Z,73.16
2022-11-08T18:20:04.134Z,73.26
2022-11-08T18:25:13.597Z,73.38
2022-11-08T18:30:20.483Z,73.27
2022-11-08T18:35:28.173Z,73.39
2022-11-08T18:40:35.482Z,73.65
2022-11-08T18:45:42.541Z,73.88
2022-11-08T18:50:56.065Z,73.80
2022-11-08T18:56:03.345Z,74.06
2022-11-08T19:01:10.868Z,74.06
2022-11-08T19:06:38.662Z,74.12
2022-11-08T19:11:48.155Z,74.49
2022-11-08T19:17:10.609Z,74.58
2022-11-08T19:22:20.131Z,74.62
2022-11-08T19:27:30.951Z,74.88
2022-11-08T19:32:57.633Z,75.04
2022-11-08T19:38:16.866Z,74.69
2022-11-08T19:43:24.242Z,74.85
2022-11-08T19:48:32.102Z,75.08
2022-11-08T19:53:39.954Z,75.09
2022-11-08T19:58:47.665Z,75.20
2022-11-08T20:03:55.140Z,75.40
2022-11-08T20:09:04.960Z,75.47
2022-11-08T20:14:14.818Z,75.57
2022-11-08T20:19:22.476Z,75.81
2022-11-08T20:24:29.511Z,76.06
2022-11-08T20:29:36.582Z,76.00
2022-11-08T20:34:43.864Z,76.29
2022-11-08T20:39:51.303Z,76.24
2022-11-08T20:44:58.400Z,76.20
2022-11-08T20:50:05.583Z,76.44
2022-11-08T20:55:13.026Z,76.52
2022-11-08T21:00:37.871Z,76.48
2022-11-08T21:05:54.035Z,76.57
2022-11-08T21:11:01.822Z,76.77
2022-11-08T21:16:29.302Z,76.76
2022-11-08T21:21:38.597Z,76.85
2022-11-08T21:26:45.835Z,76.89
2022-11-08T21:31:52.768Z,77.03
2022-11-08T21:37:01.701Z,77.10
2022-11-08T21:42:08.620Z,77.21
2022-11-08T21:47:15.638Z,77.42
2022-11-08T21:52:22.599Z,77.38
2022-11-08T21:57:29.571Z,77.27
2022-11-08T22:02:36.471Z,77.45
2022-11-08T22:07:43.362Z,77.91
2022-11-08T22:12:50.538Z,77.98
2022-11-08T22:23:26.294Z,77.90
2022-11-08T22:28:33.159Z,78.10
2022-11-08T22:33:40.469Z,78.12
2022-11-08T22:38:47.647Z,78.16
2022-11-08T22:43:54.902Z,78.28
2022-11-08T22:49:01.918Z,78.41
2022-11-08T22:54:08.859Z,78.46
2022-11-08T22:59:15.923Z,78.64
2022-11-08T23:04:22.766Z,78.88
2022-11-08T23:09:29.517Z,78.95
2022-11-08T23:14:53.969Z,79.17
2022-11-08T23:20:18.435Z,79.55
2022-11-08T23:25:25.439Z,79.62
2022-11-08T23:30:51.517Z,79.76
2022-11-08T23:36:15.904Z,79.96
2022-11-08T23:41:42.695Z,80.36
2022-11-08T23:46:49.629Z,80.26
2022-11-08T23:51:57.279Z,80.38
2022-11-08T23:57:04.169Z,80.48
